Time;durP1;ratioP1;P1;durP2;ratioP2;P2;SDS_P1;SDS_P2;PMS_P1;PMS_P2;Temp;Humidity;BMP_temperature;BMP_pressure;BME280_temperature;BME280_humidity;BME280_pressure;Samples;Min_cycle;Max_cycle;Signal;HPM_P1;HPM_P2
2021/10/26 00:01:49;;;;;;;11.40;5.78;;;;;;;9.84;100.00;101449.72;6254368;28;20050;-84
2021/10/26 00:04:51;;;;;;;16.27;6.22;;;;;;;9.85;100.00;101440.06;6254645;28;20060;-83
2021/10/26 00:07:53;;;;;;;11.07;5.63;;;;;;;9.93;100.00;101442.41;6254600;28;20069;-83
2021/10/26 00:10:55;;;;;;;14.73;6.55;;;;;;;9.90;100.00;101439.00;6253963;28;20496;-83
2021/10/26 00:13:57;;;;;;;14.20;6.53;;;;;;;9.89;100.00;101437.25;6252830;28;20057;-83
2021/10/26 00:17:11;;;;;;;10.93;6.47;;;;;;;9.95;100.00;101443.19;6253146;28;20045;-83
2021/10/26 00:20:14;;;;;;;13.82;6.50;;;;;;;9.91;100.00;101440.69;6254778;28;20523;-83
2021/10/26 00:23:25;;;;;;;12.52;6.07;;;;;;;9.93;100.00;101443.25;6255330;28;20045;-83
2021/10/26 00:26:27;;;;;;;16.30;6.85;;;;;;;9.91;100.00;101445.09;6254710;28;20053;-83
2021/10/26 00:29:28;;;;;;;13.30;6.22;;;;;;;9.93;100.00;101445.03;6254099;28;20105;-83
2021/10/26 00:32:30;;;;;;;16.27;6.72;;;;;;;10.01;100.00;101449.06;6244533;28;20049;-82
2021/10/26 00:35:31;;;;;;;13.35;6.68;;;;;;;10.01;100.00;101446.44;6227225;28;20516;-83
2021/10/26 00:38:34;;;;;;;15.40;7.65;;;;;;;10.02;100.00;101442.03;6230486;28;20050;-83
2021/10/26 00:41:36;;;;;;;15.93;6.55;;;;;;;10.02;100.00;101445.50;6230303;28;20058;-83
2021/10/26 00:44:38;;;;;;;19.15;7.85;;;;;;;9.98;100.00;101449.16;6228843;28;20053;-83
2021/10/26 00:47:39;;;;;;;15.10;7.90;;;;;;;9.98;100.00;101449.16;6229012;28;20508;-82
2021/10/26 00:50:41;;;;;;;18.65;8.32;;;;;;;9.98;100.00;101448.31;6227931;28;20049;-82
2021/10/26 00:53:44;;;;;;;15.88;7.97;;;;;;;9.98;100.00;101451.81;6227767;28;20516;-82
2021/10/26 00:56:46;;;;;;;20.30;9.38;;;;;;;9.98;100.00;101448.31;6229044;28;20058;-83
2021/10/26 00:59:47;;;;;;;18.58;8.10;;;;;;;10.00;100.00;101459.63;6230278;28;20089;-83
2021/10/26 01:02:49;;;;;;;16.25;8.30;;;;;;;10.03;100.00;101459.50;6242920;28;20417;-83
2021/10/26 01:05:50;;;;;;;17.23;8.38;;;;;;;10.04;100.00;101471.72;6254267;28;20042;-84
2021/10/26 01:08:53;;;;;;;17.33;8.15;;;;;;;10.05;100.00;101461.16;6253113;28;20137;-83
2021/10/26 01:11:55;;;;;;;17.30;8.57;;;;;;;10.03;100.00;101459.50;6252332;28;20057;-83
2021/10/26 01:14:56;;;;;;;17.83;8.65;;;;;;;10.08;100.00;101468.94;6251196;28;20060;-83
2021/10/26 01:17:59;;;;;;;20.45;8.60;;;;;;;10.06;100.00;101464.63;6252612;28;20048;-84
2021/10/26 01:21:03;;;;;;;17.17;8.55;;;;;;;10.07;100.00;101461.94;6252803;28;20058;-83
2021/10/26 01:24:06;;;;;;;16.58;7.97;;;;;;;10.09;100.00;101464.53;6251987;28;20073;-84
2021/10/26 01:27:08;;;;;;;19.67;6.78;;;;;;;10.08;100.00;101474.19;6251900;28;20055;-83
2021/10/26 01:30:12;;;;;;;21.13;9.27;;;;;;;10.14;100.00;101468.66;6251633;28;20052;-84
2021/10/26 01:33:13;;;;;;;22.20;8.32;;;;;;;10.10;100.00;101459.19;6251223;28;20140;-83
2021/10/26 01:36:19;;;;;;;17.27;9.00;;;;;;;10.10;100.00;101460.97;6253174;28;20481;-84
2021/10/26 01:39:20;;;;;;;14.10;7.20;;;;;;;10.11;100.00;101463.53;6253180;28;20046;-83
2021/10/26 01:42:21;;;;;;;16.65;8.55;;;;;;;10.14;100.00;101470.44;6252680;28;20516;-81
2021/10/26 01:45:23;;;;;;;16.05;8.32;;;;;;;10.15;100.00;101459.88;6252034;28;20049;-84
2021/10/26 01:48:26;;;;;;;18.98;8.15;;;;;;;10.16;100.00;101465.97;6252757;28;20045;-84
2021/10/26 01:51:29;;;;;;;18.90;8.77;;;;;;;10.16;100.00;101458.09;6252171;28;20057;-83
2021/10/26 01:54:36;;;;;;;18.48;8.02;;;;;;;10.17;100.00;101459.78;6253464;28;20056;-83
2021/10/26 01:57:38;;;;;;;11.52;6.88;;;;;;;10.15;100.00;101465.13;6257984;28;20056;-85
2021/10/26 02:00:43;;;;;;;14.80;7.45;;;;;;;10.14;100.00;101452.06;6257714;28;20056;-85
2021/10/26 02:03:45;;;;;;;12.57;6.50;;;;;;;10.19;100.00;101462.38;6246038;28;20510;-83
2021/10/26 02:06:48;;;;;;;13.10;7.78;;;;;;;10.16;100.00;101458.09;6231759;28;20051;-84
2021/10/26 02:09:49;;;;;;;14.75;6.07;;;;;;;10.16;100.00;101456.31;6240229;28;20057;-83
2021/10/26 02:12:51;;;;;;;12.35;6.57;;;;;;;10.16;100.00;101461.56;6260096;28;20443;-84
2021/10/26 02:15:52;;;;;;;19.15;7.15;;;;;;;10.18;100.00;101458.91;6259361;28;20152;-85
2021/10/26 02:18:53;;;;;;;16.90;5.65;;;;;;;10.20;100.00;101451.81;6258705;28;20058;-85
2021/10/26 02:21:57;;;;;;;12.25;6.15;;;;;;;10.19;100.00;101457.13;6261994;28;20059;-84
2021/10/26 02:24:59;;;;;;;13.65;6.13;;;;;;;10.18;100.00;101444.91;6259011;28;20094;-84
2021/10/26 02:28:01;;;;;;;11.90;6.32;;;;;;;10.18;100.00;101445.78;6260407;28;20051;-84
2021/10/26 02:31:04;;;;;;;8.55;4.78;;;;;;;10.14;100.00;101452.06;6259119;28;20571;-85
2021/10/26 02:34:07;;;;;;;14.32;7.13;;;;;;;10.14;100.00;101455.53;6260947;28;20045;-84
2021/10/26 02:37:09;;;;;;;13.32;6.55;;;;;;;10.15;100.00;101459.88;6258995;28;20045;-85
2021/10/26 02:40:12;;;;;;;10.55;6.20;;;;;;;10.21;100.00;101460.53;6259095;28;20085;-84
2021/10/26 02:43:16;;;;;;;10.52;6.28;;;;;;;10.18;100.00;101460.69;6259788;28;20492;-85
2021/10/26 02:46:17;;;;;;;17.10;7.00;;;;;;;10.15;100.00;101453.75;6276594;23;20050;-78
2021/10/26 02:49:19;;;;;;;14.65;7.07;;;;;;;10.16;100.00;101458.94;6241905;28;20056;-78
2021/10/26 02:52:22;;;;;;;14.85;6.70;;;;;;;10.15;100.00;101459.03;6229688;28;20049;-79
2021/10/26 02:55:23;;;;;;;13.35;7.13;;;;;;;10.20;100.00;101454.44;6226465;28;20056;-77
2021/10/26 02:58:25;;;;;;;16.33;7.88;;;;;;;10.18;100.00;101455.44;6250613;28;20049;-79
2021/10/26 03:01:26;;;;;;;14.20;6.28;;;;;;;10.20;100.00;101462.31;6251097;28;20049;-78
2021/10/26 03:04:27;;;;;;;17.63;7.28;;;;;;;10.17;100.00;101457.16;6250185;28;20463;-79
2021/10/26 03:07:30;;;;;;;13.05;6.45;;;;;;;10.18;100.00;101460.69;6250698;28;20045;-78
2021/10/26 03:10:32;;;;;;;14.77;7.82;;;;;;;10.16;100.00;101444.97;6250731;28;20049;-78
2021/10/26 03:13:33;;;;;;;17.23;7.75;;;;;;;10.14;100.00;101450.28;6250519;28;20060;-78
2021/10/26 03:16:35;;;;;;;15.48;7.07;;;;;;;10.14;100.00;101452.91;6250498;28;20046;-78
2021/10/26 03:19:36;;;;;;;19.55;7.18;;;;;;;10.15;100.00;101454.63;6250548;28;20053;-79
2021/10/26 03:22:39;;;;;;;18.83;7.65;;;;;;;10.14;100.00;101449.44;6250338;28;20520;-78
2021/10/26 03:25:40;;;;;;;13.55;7.75;;;;;;;10.16;100.00;101460.72;6249886;28;20056;-78
2021/10/26 03:28:42;;;;;;;17.23;7.22;;;;;;;10.15;100.00;101454.63;6250497;28;20056;-78
2021/10/26 03:31:44;;;;;;;14.90;7.00;;;;;;;10.18;100.00;101452.81;6249861;28;20049;-78
2021/10/26 03:34:45;;;;;;;12.65;6.22;;;;;;;10.17;100.00;101457.16;6249602;28;20459;-79
2021/10/26 03:37:48;;;;;;;13.20;7.03;;;;;;;10.21;100.00;101455.28;6249530;28;20060;-78
2021/10/26 03:40:49;;;;;;;14.90;6.93;;;;;;;10.21;100.00;101458.75;6250228;28;20521;-78
2021/10/26 03:43:51;;;;;;;17.13;7.43;;;;;;;10.22;100.00;101457.88;6249539;28;20045;-78
2021/10/26 03:46:52;;;;;;;16.23;7.80;;;;;;;10.28;100.00;101462.03;6249951;28;20051;-78
2021/10/26 03:49:54;;;;;;;11.98;6.60;;;;;;;10.21;100.00;101453.50;6249723;28;20508;-78
2021/10/26 03:52:57;;;;;;;17.48;7.43;;;;;;;10.23;100.00;101456.09;6249604;28;20046;-79
2021/10/26 03:55:58;;;;;;;14.48;7.72;;;;;;;10.25;100.00;101456.91;6249663;28;20045;-78
2021/10/26 03:59:04;;;;;;;12.15;7.13;;;;;;;10.23;100.00;101456.94;6245578;28;20457;-78
2021/10/26 04:02:08;;;;;;;13.88;7.05;;;;;;;10.23;100.00;101458.72;6235467;28;20497;-79
2021/10/26 04:05:21;;;;;;;12.40;6.70;;;;;;;10.24;100.00;101468.31;6237014;28;20514;-78
2021/10/26 04:08:26;;;;;;;13.68;6.18;;;;;;;10.23;100.00;101467.44;6237131;28;20121;-78
2021/10/26 04:11:29;;;;;;;14.05;7.00;;;;;;;10.23;100.00;101472.72;6237090;28;20451;-78
2021/10/26 04:14:30;;;;;;;14.45;5.95;;;;;;;10.22;100.00;101465.75;6236987;28;20437;-78
2021/10/26 04:17:31;;;;;;;13.13;5.80;;;;;;;10.21;100.00;101455.28;6233750;28;20049;-78
2021/10/26 04:20:33;;;;;;;14.73;6.05;;;;;;;10.19;100.00;101460.59;6236259;28;20519;-78
2021/10/26 04:23:36;;;;;;;15.52;6.50;;;;;;;10.20;100.00;101461.47;6236968;28;20057;-78
2021/10/26 04:26:37;;;;;;;14.23;6.18;;;;;;;10.20;100.00;101467.56;6249473;28;20053;-78
2021/10/26 04:29:41;;;;;;;12.93;6.68;;;;;;;10.20;100.00;101469.34;6248770;28;20056;-79
2021/10/26 04:32:42;;;;;;;11.07;5.50;;;;;;;10.25;100.00;101470.03;6243308;28;20045;-79
2021/10/26 04:35:44;;;;;;;12.32;6.38;;;;;;;10.23;100.00;101471.84;6226116;28;20050;-77
2021/10/26 04:38:46;;;;;;;13.55;6.45;;;;;;;10.26;100.00;101475.22;6235950;28;20057;-77
2021/10/26 04:41:48;;;;;;;12.07;6.10;;;;;;;10.21;100.00;101476.28;6240740;28;20050;-78
2021/10/26 04:44:49;;;;;;;11.38;5.95;;;;;;;10.23;100.00;101490.25;6248975;28;20060;-77
2021/10/26 04:47:51;;;;;;;11.88;5.68;;;;;;;10.21;100.00;101479.78;6248628;28;20386;-78
2021/10/26 04:50:52;;;;;;;10.88;6.25;;;;;;;10.23;100.00;101487.63;6248787;28;20049;-78
2021/10/26 04:53:55;;;;;;;11.35;6.35;;;;;;;10.32;100.00;101490.75;6239777;28;20471;-78
2021/10/26 04:56:57;;;;;;;14.45;6.65;;;;;;;10.24;100.00;101489.31;6248053;28;20045;-78
2021/10/26 04:59:59;;;;;;;12.02;6.28;;;;;;;10.25;100.00;101484.03;6248356;28;20056;-78
2021/10/26 05:03:00;;;;;;;11.65;5.75;;;;;;;10.25;100.00;101491.06;6238633;28;20072;-78
2021/10/26 05:06:03;;;;;;;16.33;5.93;;;;;;;10.24;100.00;101491.94;6248290;28;20056;-77
2021/10/26 05:09:06;;;;;;;11.02;5.63;;;;;;;10.23;100.00;101501.59;6248078;28;20053;-77
2021/10/26 05:12:07;;;;;;;9.23;5.03;;;;;;;10.26;100.00;101490.97;6248290;28;20049;-78
2021/10/26 05:15:10;;;;;;;13.07;6.03;;;;;;;10.23;100.00;101500.75;6247923;28;20065;-78
2021/10/26 05:18:13;;;;;;;12.15;5.20;;;;;;;10.21;100.00;101506.03;6248238;28;20053;-77
2021/10/26 05:21:19;;;;;;;12.35;5.80;;;;;;;10.20;100.00;101503.47;6247551;28;20064;-77
2021/10/26 05:24:24;;;;;;;12.45;6.20;;;;;;;10.21;100.00;101516.53;6233060;28;20077;-79
2021/10/26 05:27:26;;;;;;;13.63;6.22;;;;;;;10.23;100.00;101516.50;6233986;28;20132;-78
2021/10/26 05:30:27;;;;;;;11.27;5.18;;;;;;;10.23;100.00;101513.88;6233240;28;20054;-77
2021/10/26 05:33:29;;;;;;;11.52;5.88;;;;;;;10.21;100.00;101510.44;6233478;28;20050;-78
2021/10/26 05:36:30;;;;;;;10.48;4.75;;;;;;;10.24;100.00;101512.97;6234526;28;20509;-78
2021/10/26 05:39:33;;;;;;;12.13;5.72;;;;;;;10.24;100.00;101519.09;6233092;28;20053;-77
2021/10/26 05:42:34;;;;;;;8.80;5.63;;;;;;;10.21;100.00;101516.53;6234979;28;20410;-77
2021/10/26 05:45:36;;;;;;;12.05;5.85;;;;;;;10.19;100.00;101518.41;6246002;28;20064;-77
2021/10/26 05:48:37;;;;;;;12.85;6.57;;;;;;;10.21;100.00;101515.69;6247484;28;20433;-78
2021/10/26 05:51:39;;;;;;;16.40;7.22;;;;;;;10.20;100.00;101516.63;6247631;28;20119;-78
2021/10/26 05:54:42;;;;;;;15.23;6.55;;;;;;;10.27;100.00;101513.72;6247900;28;20053;-79
2021/10/26 05:57:43;;;;;;;13.07;6.70;;;;;;;10.23;100.00;101511.25;6248717;28;20052;-80
2021/10/26 06:00:45;;;;;;;14.35;6.60;;;;;;;10.21;100.00;101519.16;6248939;28;20053;-78
2021/10/26 06:03:46;;;;;;;13.27;6.38;;;;;;;10.21;100.00;101520.94;6250108;28;20049;-78
2021/10/26 06:06:48;;;;;;;14.05;7.18;;;;;;;10.23;100.00;101527.00;6250571;28;20619;-79
2021/10/26 06:09:50;;;;;;;13.98;7.35;;;;;;;10.26;100.00;101525.13;6252757;28;20054;-78
2021/10/26 06:12:55;;;;;;;17.73;7.15;;;;;;;10.25;100.00;101525.19;6253031;28;20054;-79
2021/10/26 06:15:57;;;;;;;13.23;7.40;;;;;;;10.19;100.00;101534.16;6252140;28;20076;-77
2021/10/26 06:18:58;;;;;;;22.77;9.10;;;;;;;10.15;100.00;101546.53;6253444;28;20042;-78
2021/10/26 06:22:00;;;;;;;18.85;8.32;;;;;;;10.11;100.00;101549.34;6250019;28;20049;-81
2021/10/26 06:25:03;;;;;;;16.42;7.10;;;;;;;10.07;100.00;101547.75;6249964;28;20060;-81
2021/10/26 06:28:05;;;;;;;15.35;7.95;;;;;;;10.05;100.00;101555.69;6236840;28;20046;-82
2021/10/26 06:31:06;;;;;;;20.73;7.88;;;;;;;10.05;100.00;101550.44;6254307;28;20053;-80
2021/10/26 06:34:08;;;;;;;13.43;7.38;;;;;;;10.05;100.00;101552.22;6251707;28;20057;-83
2021/10/26 06:37:09;;;;;;;21.92;8.93;;;;;;;10.12;100.00;101558.94;6249696;28;20052;-79
2021/10/26 06:40:14;;;;;;;17.40;8.45;;;;;;;10.10;100.00;101563.41;6234381;28;20061;-80
2021/10/26 06:43:15;;;;;;;19.00;8.38;;;;;;;10.13;100.00;101564.16;6229785;28;20053;-82
2021/10/26 06:46:16;;;;;;;18.38;8.90;;;;;;;10.15;100.00;101571.97;6235181;28;20068;-83
2021/10/26 06:49:18;;;;;;;20.02;8.50;;;;;;;10.26;100.00;101577.66;6233740;28;20160;-83
2021/10/26 06:52:19;;;;;;;19.77;8.90;;;;;;;10.29;100.00;101587.22;6235294;28;20046;-82
2021/10/26 06:55:23;;;;;;;19.90;8.60;;;;;;;10.30;100.00;101583.66;6234468;28;20050;-83
2021/10/26 06:58:27;;;;;;;17.70;9.73;;;;;;;10.37;100.00;101582.53;6246997;28;20124;-81
2021/10/26 07:01:28;;;;;;;17.17;8.57;;;;;;;10.38;100.00;101585.09;6259409;28;20132;-82
2021/10/26 07:04:31;;;;;;;20.13;9.38;;;;;;;10.46;100.00;101590.06;6260819;28;20195;-81
2021/10/26 07:07:32;;;;;;;20.60;9.35;;;;;;;10.50;100.00;101593.41;6237466;28;20126;-80
2021/10/26 07:10:35;;;;;;;16.58;9.15;;;;;;;10.54;100.00;101603.75;6236615;28;20057;-81
2021/10/26 07:13:39;;;;;;;13.25;6.82;;;;;;;10.55;100.00;101610.72;6232344;28;20050;-81
2021/10/26 07:16:40;;;;;;;18.13;8.68;;;;;;;10.57;100.00;101616.75;6228583;28;20109;-81
2021/10/26 07:19:41;;;;;;;15.75;8.30;;;;;;;10.56;100.00;101620.31;6229616;28;20049;-79
2021/10/26 07:22:51;;;;;;;15.20;7.13;;;;;;;10.60;100.00;101614.00;6232339;28;20073;-83
2021/10/26 07:25:55;;;;;;;26.77;8.93;;;;;;;10.59;100.00;101621.97;6243141;28;20049;-79
2021/10/26 07:28:57;;;;;;;20.38;9.00;;;;;;;10.62;100.00;101625.31;6239742;28;20042;-81
2021/10/26 07:31:58;;;;;;;16.25;8.73;;;;;;;10.60;100.00;101618.41;6252339;28;20049;-82
2021/10/26 07:35:00;;;;;;;16.40;8.23;;;;;;;10.56;100.00;101611.56;6257736;28;20109;-82
2021/10/26 07:38:01;;;;;;;18.85;8.95;;;;;;;10.61;100.00;101620.13;6256910;28;20583;-80
2021/10/26 07:41:05;;;;;;;17.05;9.25;;;;;;;10.59;100.00;101624.59;6256583;28;20065;-82
2021/10/26 07:44:06;;;;;;;14.75;7.50;;;;;;;10.57;100.00;101622.00;6256830;28;20049;-81
2021/10/26 07:47:08;;;;;;;18.00;8.02;;;;;;;10.58;100.00;101631.63;6260350;28;20053;-81
2021/10/26 07:50:10;;;;;;;16.73;8.27;;;;;;;10.56;100.00;101624.72;6265573;28;20045;-84
2021/10/26 07:53:11;;;;;;;17.88;7.75;;;;;;;10.59;100.00;101621.97;6259028;28;20053;-82
2021/10/26 07:56:14;;;;;;;16.45;8.30;;;;;;;10.56;100.00;101628.19;6263260;28;20041;-82
2021/10/26 07:59:15;;;;;;;14.98;7.25;;;;;;;10.57;100.00;101626.41;6266316;28;20049;-83
2021/10/26 08:02:17;;;;;;;15.98;7.90;;;;;;;10.62;100.00;101619.19;6261109;28;20080;-81
2021/10/26 08:05:18;;;;;;;16.02;8.05;;;;;;;10.63;100.00;101623.56;6253014;28;20069;-81
2021/10/26 08:08:20;;;;;;;18.73;8.85;;;;;;;10.68;100.00;101628.63;6251871;28;20049;-80
2021/10/26 08:11:24;;;;;;;16.23;8.23;;;;;;;10.72;100.00;101635.47;6250744;28;20049;-79
2021/10/26 08:14:26;;;;;;;18.27;7.65;;;;;;;10.75;100.00;101633.56;6249844;28;20389;-79
2021/10/26 08:17:27;;;;;;;16.45;7.80;;;;;;;10.80;100.00;101636.88;6250100;28;20050;-78
2021/10/26 08:20:29;;;;;;;12.80;6.97;;;;;;;10.84;100.00;101635.84;6249950;28;20057;-80
2021/10/26 08:23:30;;;;;;;12.90;6.68;;;;;;;10.91;100.00;101642.56;6251382;28;20527;-82
2021/10/26 08:26:35;;;;;;;22.05;10.23;;;;;;;10.97;100.00;101640.59;6252065;28;20050;-79
2021/10/26 08:29:46;;;;;;;11.70;6.65;;;;;;;11.03;100.00;101653.50;6242933;28;20049;-79
2021/10/26 08:32:53;;;;;;;14.73;7.53;;;;;;;11.07;100.00;101665.59;6236657;28;20054;-79
2021/10/26 08:35:54;;;;;;;10.73;5.97;;;;;;;11.11;100.00;101667.19;6246146;28;20052;-83
2021/10/26 08:38:56;;;;;;;15.02;6.60;;;;;;;11.12;100.00;101661.88;6241636;28;20056;-80
2021/10/26 08:42:00;;;;;;;12.68;6.15;;;;;;;11.16;100.00;101667.88;6228298;28;20057;-81
2021/10/26 08:45:02;;;;;;;12.57;5.50;;;;;;;11.22;100.00;101672.00;6248010;28;20057;-82
2021/10/26 08:48:06;;;;;;;12.32;5.47;;;;;;;11.23;100.00;101674.59;6268374;23;20061;-83
2021/10/26 08:51:08;;;;;;;11.60;6.00;;;;;;;11.28;100.00;101664.75;6252363;28;20049;-83
2021/10/26 08:54:10;;;;;;;13.70;6.00;;;;;;;11.24;100.00;101664.94;6252004;28;20492;-84
2021/10/26 08:57:13;;;;;;;10.82;5.60;;;;;;;11.27;100.00;101656.91;6258346;28;20056;-82
2021/10/26 09:00:17;;;;;;;12.25;6.28;;;;;;;11.29;100.00;101658.53;6252787;28;20045;-83
2021/10/26 09:03:20;;;;;;;12.23;5.10;;;;;;;11.34;100.00;101653.09;6256897;28;20151;-82
2021/10/26 09:06:25;;;;;;;11.02;5.18;;;;;;;11.40;100.00;101653.72;6263646;28;20726;-86
2021/10/26 09:09:28;;;;;;;7.70;4.53;;;;;;;11.47;100.00;101659.56;6262960;28;20061;-85
2021/10/26 09:19:14;;;;;;;10.90;5.65;;;;;;;11.61;100.00;101665.09;6250697;28;20053;-88
2021/10/26 09:22:16;;;;;;;11.70;5.15;;;;;;;11.66;100.00;101660.47;6255953;28;20050;-85
2021/10/26 09:25:20;;;;;;;11.95;5.07;;;;;;;11.67;100.00;101658.69;6252930;28;20060;-86
2021/10/26 09:28:22;;;;;;;9.88;4.55;;;;;;;11.66;100.00;101664.88;6266806;28;20053;-84
2021/10/26 09:31:27;;;;;;;8.90;4.28;;;;;;;11.77;100.00;101667.06;6248728;28;20057;-87
2021/10/26 09:34:28;;;;;;;8.35;5.10;;;;;;;11.73;100.00;101670.75;6249661;28;20184;-84
2021/10/26 09:37:34;;;;;;;12.43;4.53;;;;;;;11.77;100.00;101673.19;6250204;28;20052;-86
2021/10/26 09:40:42;;;;;;;11.00;4.45;;;;;;;11.72;100.00;101672.53;6248019;28;20049;-84
2021/10/26 09:43:44;;;;;;;8.77;4.55;;;;;;;11.73;100.00;101678.66;6248156;28;20057;-87
2021/10/26 09:46:51;;;;;;;7.78;4.05;;;;;;;11.72;100.00;101675.16;6247873;28;20056;-85
2021/10/26 09:49:56;;;;;;;6.88;4.05;;;;;;;11.71;100.00;101670.81;6250109;28;20053;-86
2021/10/26 09:53:03;;;;;;;9.50;3.90;;;;;;;11.82;100.00;101678.25;6252256;28;20089;-87
2021/10/26 09:56:11;;;;;;;13.23;3.80;;;;;;;11.79;100.00;101679.22;6250188;28;20053;-87
2021/10/26 09:59:15;;;;;;;9.20;4.32;;;;;;;11.75;100.00;101677.66;6249667;28;20500;-86
2021/10/26 10:02:22;;;;;;;7.35;3.97;;;;;;;11.73;100.00;101682.13;6248838;28;20049;-85
2021/10/26 10:05:27;;;;;;;10.88;4.28;;;;;;;11.85;100.00;101686.88;6248898;28;20107;-86
2021/10/26 10:08:33;;;;;;;6.65;3.22;;;;;;;11.93;100.00;101676.03;6249971;28;20132;-85
2021/10/26 10:11:34;;;;;;;6.53;3.70;;;;;;;12.04;100.00;101686.97;6247871;28;20046;-83
2021/10/26 10:14:40;;;;;;;9.88;3.72;;;;;;;11.99;100.00;101680.16;6246910;28;20534;-86
2021/10/26 10:17:42;;;;;;;9.45;3.22;;;;;;;11.96;100.00;101678.53;6249848;28;20524;-84
2021/10/26 10:20:45;;;;;;;8.80;3.83;;;;;;;11.93;100.00;101673.38;6252061;28;20063;-85
2021/10/26 10:23:47;;;;;;;6.03;2.92;;;;;;;11.89;100.00;101683.19;6251257;28;20053;-85
2021/10/26 10:26:51;;;;;;;7.72;3.88;;;;;;;11.91;100.00;101683.16;6252055;28;20049;-85
2021/10/26 10:29:55;;;;;;;8.00;3.72;;;;;;;12.03;100.00;101689.63;6251262;28;20053;-86
2021/10/26 10:32:57;;;;;;;9.00;3.33;;;;;;;12.07;99.55;101691.22;6251683;28;20041;-88
2021/10/26 10:35:59;;;;;;;6.65;3.05;;;;;;;12.13;99.18;101688.34;6251484;28;20045;-86
2021/10/26 10:39:05;;;;;;;6.57;3.35;;;;;;;12.24;97.99;101696.59;6251656;28;20049;-88
2021/10/26 10:42:12;;;;;;;4.50;2.53;;;;;;;12.25;97.31;101686.91;6251610;28;20140;-86
2021/10/26 10:45:26;;;;;;;5.80;2.40;;;;;;;12.39;98.06;101687.13;6251280;28;20136;-85
2021/10/26 10:48:30;;;;;;;6.18;3.13;;;;;;;12.60;95.56;101672.13;6251779;28;20057;-86
2021/10/26 10:51:52;;;;;;;7.40;2.40;;;;;;;12.87;93.07;101667.31;6250950;28;20099;-83
2021/10/26 10:54:54;;;;;;;10.20;2.85;;;;;;;13.11;90.25;101663.47;6250750;28;20059;-84
2021/10/26 10:57:55;;;;;;;5.50;2.75;;;;;;;13.33;89.79;101659.81;6267374;28;20056;-83
2021/10/26 11:01:26;;;;;;;7.25;2.92;;;;;;;13.30;90.36;101663.44;6276840;28;20060;-83
2021/10/26 11:04:37;;;;;;;5.85;2.17;;;;;;;13.17;92.21;101672.84;6275519;28;20052;-84
2021/10/26 11:07:52;;;;;;;3.67;2.28;;;;;;;13.36;91.63;101670.22;6275646;28;20055;-85
2021/10/26 11:11:01;;;;;;;5.18;3.20;;;;;;;13.44;90.48;101671.53;6275401;28;20132;-84
2021/10/26 11:14:17;;;;;;;6.68;3.60;;;;;;;13.63;92.48;101675.88;6275045;28;20048;-84
2021/10/26 11:17:59;;;;;;;8.38;3.10;;;;;;;14.04;88.59;101673.72;6275240;28;20060;-82
2021/10/26 11:21:03;;;;;;;4.85;2.63;;;;;;;14.10;86.29;101665.47;6265642;28;20042;-84
2021/10/26 11:24:07;;;;;;;5.35;2.47;;;;;;;13.84;86.91;101663.34;6249957;28;20054;-85
2021/10/26 11:27:35;;;;;;;4.65;2.60;;;;;;;13.56;87.29;101672.69;6250421;28;20063;-85
2021/10/26 11:30:51;;;;;;;4.65;2.58;;;;;;;13.13;90.28;101666.03;6249748;28;20042;-85
2021/10/26 11:34:08;;;;;;;5.00;2.05;;;;;;;13.09;90.18;101659.22;6250591;28;20041;-86
2021/10/26 11:37:11;;;;;;;4.50;2.70;;;;;;;12.99;89.17;101671.13;6250695;28;20050;-84
2021/10/26 11:40:13;;;;;;;7.60;3.17;;;;;;;12.95;89.27;101673.94;6250403;28;20053;-85
2021/10/26 11:43:16;;;;;;;7.53;3.42;;;;;;;13.00;88.93;101663.16;6251761;28;20053;-85
2021/10/26 11:46:19;;;;;;;9.02;3.13;;;;;;;12.99;89.61;101671.13;6252295;28;20053;-86
2021/10/26 11:49:23;;;;;;;8.73;4.25;;;;;;;13.00;90.17;101663.16;6252936;28;20492;-84
2021/10/26 11:52:24;;;;;;;5.88;2.30;;;;;;;13.02;90.47;101658.63;6228537;28;20053;-86
2021/10/26 11:55:27;;;;;;;5.57;2.60;;;;;;;13.23;89.16;101663.84;6228482;28;20058;-85
2021/10/26 11:58:30;;;;;;;6.28;3.35;;;;;;;13.39;89.36;101657.69;6229000;28;20050;-86
2021/10/26 12:01:43;;;;;;;3.63;2.15;;;;;;;13.54;88.29;101658.72;6228501;28;20049;-85
2021/10/26 12:04:49;;;;;;;3.83;2.72;;;;;;;13.74;86.20;101654.19;6226232;28;20066;-86
2021/10/26 12:07:51;;;;;;;3.65;2.17;;;;;;;13.81;86.42;101669.66;6226425;28;20192;-89
2021/10/26 12:11:05;;;;;;;4.70;2.17;;;;;;;13.96;85.53;101660.91;6226727;28;20053;-85
2021/10/26 12:14:27;;;;;;;4.80;1.98;;;;;;;14.09;84.89;101662.91;6225814;28;20054;-88
2021/10/26 12:17:30;;;;;;;3.65;2.03;;;;;;;14.09;81.34;101657.63;6249094;28;20050;-85
2021/10/26 12:20:32;;;;;;;3.15;1.92;;;;;;;13.99;82.56;101674.88;6259816;28;20072;-86
2021/10/26 12:23:35;;;;;;;4.60;2.72;;;;;;;13.92;83.00;101680.50;6255717;28;20048;-86
2021/10/26 12:26:36;;;;;;;5.72;2.72;;;;;;;13.87;84.23;101679.88;6256112;28;20055;-88
2021/10/26 12:29:41;;;;;;;5.50;2.60;;;;;;;13.89;83.75;101677.16;6252776;28;20424;-88
2021/10/26 12:32:48;;;;;;;4.07;2.20;;;;;;;13.81;83.64;101666.16;6249543;28;20132;-86
2021/10/26 12:35:53;;;;;;;6.55;2.38;;;;;;;13.94;84.45;101668.06;6251642;28;20050;-86
2021/10/26 12:39:01;;;;;;;5.07;2.28;;;;;;;14.00;82.79;101666.91;6249507;28;20723;-88
2021/10/26 12:42:02;;;;;;;6.22;2.15;;;;;;;13.83;82.28;101673.06;6249414;28;20052;-88
2021/10/26 12:45:08;;;;;;;2.20;1.50;;;;;;;13.76;82.31;101674.28;6254298;28;20049;-87
2021/10/26 12:48:11;;;;;;;9.93;2.10;;;;;;;13.66;82.08;101668.63;6256963;28;20048;-86
2021/10/26 12:51:19;;;;;;;3.60;1.92;;;;;;;13.70;84.00;101664.06;6250673;28;20053;-88
2021/10/26 12:54:22;;;;;;;3.27;1.53;;;;;;;13.57;83.04;101657.69;6273865;28;20059;-84
2021/10/26 12:57:36;;;;;;;3.33;1.90;;;;;;;13.49;85.02;101666.03;6274313;28;20052;-85
2021/10/26 13:00:47;;;;;;;3.38;1.58;;;;;;;13.43;84.87;101680.38;6262464;28;20135;-87
2021/10/26 13:04:07;;;;;;;3.42;1.80;;;;;;;13.43;84.29;101661.88;6257723;28;20053;-89
2021/10/26 13:07:11;;;;;;;6.60;1.55;;;;;;;13.43;85.72;101667.16;6248490;28;20095;-89
2021/10/26 13:10:14;;;;;;;1.52;1.33;;;;;;;13.51;86.19;101668.56;6250899;28;20052;-88
2021/10/26 13:13:16;;;;;;;3.03;1.65;;;;;;;13.57;85.48;101669.09;6249569;28;20061;-83
2021/10/26 13:16:34;;;;;;;3.47;1.50;;;;;;;13.53;84.63;101667.56;6248998;28;20061;-86
2021/10/26 13:19:35;;;;;;;2.25;1.55;;;;;;;13.48;85.84;101660.81;6248894;28;20416;-84
2021/10/26 13:22:38;;;;;;;3.67;1.23;;;;;;;13.50;85.00;101657.16;6249681;28;20055;-86
2021/10/26 13:25:44;;;;;;;2.05;1.13;;;;;;;13.54;86.24;101657.88;6249013;28;20504;-85
2021/10/26 13:28:46;;;;;;;1.55;1.27;;;;;;;13.54;84.44;101653.44;6248951;28;20061;-83
2021/10/26 13:31:48;;;;;;;4.85;1.92;;;;;;;13.50;84.12;101651.88;6249019;28;20053;-82
2021/10/26 13:34:51;;;;;;;4.68;1.58;;;;;;;13.39;85.66;101655.06;6248419;28;20056;-81
2021/10/26 13:37:52;;;;;;;1.77;1.30;;;;;;;13.52;84.46;101654.44;6248433;28;20440;-82
2021/10/26 13:40:55;;;;;;;2.67;1.55;;;;;;;13.45;85.42;101653.91;6249094;28;20053;-82
2021/10/26 13:43:57;;;;;;;4.10;1.80;;;;;;;13.41;86.68;101653.19;6248990;28;20416;-82
2021/10/26 13:46:59;;;;;;;3.97;1.80;;;;;;;13.38;86.67;101650.72;6247867;28;20467;-82
2021/10/26 13:50:01;;;;;;;3.20;1.58;;;;;;;13.40;86.76;101640.94;6248857;28;20417;-81
2021/10/26 13:53:02;;;;;;;4.57;1.83;;;;;;;13.39;86.50;101644.50;6247706;28;20057;-82
2021/10/26 13:56:04;;;;;;;3.38;1.90;;;;;;;13.37;87.85;101649.00;6247276;28;20138;-80
2021/10/26 13:59:06;;;;;;;4.22;2.10;;;;;;;13.34;89.39;101641.22;6248156;28;20049;-82
2021/10/26 14:02:09;;;;;;;2.03;1.60;;;;;;;13.33;90.09;101641.31;6247060;28;20085;-84
2021/10/26 14:05:12;;;;;;;7.35;2.05;;;;;;;13.31;89.79;101640.56;6261687;28;20045;-81
2021/10/26 14:08:14;;;;;;;3.67;2.40;;;;;;;13.30;89.77;101638.81;6258538;28;20488;-81